Woomera Airfield

Airport
ICAO code: 
YPWR
IATA Code: 
UMR
Summary
ICAO Region: 
APAC
Territory: 
Location: 
Woomera, South Australia
Serving: 
Woomera
Elevation: 
548 ft
Coordinates: 
Aerial View: 
31° 8' 39.001" S, 136° 49' 0.998" E
Metar
Observation
YPWR 060330Z AUTO 21011KT 9999 // NCD 26/07 Q1012 RF00.0/000.0
Station
Woomera Aerodrome
Date/Time
2021-12-06 03:30:00
Wind direction
210°
Wind speed
11 kts
Lowest cloud amount
no clouds detected
Temperature
26°C
Dew point
7°C
Humidity
29%
QNH
1012 hPa
Weather condition
n/a

Runways

Designator Length Width Surface Rops
12/30 1614 30 GVL No/No
18/36 2372 45 ASP No/No
Airport map: 
Aerial View: 

SKYbrary Partners:

Safety knowledge contributed by: